Time;durP1;ratioP1;P1;durP2;ratioP2;P2;SDS_P1;SDS_P2;PMS_P1;PMS_P2;Temp;Humidity;BMP_temperature;BMP_pressure;BME280_temperature;BME280_humidity;BME280_pressure;Samples;Min_cycle;Max_cycle;Signal;HPM_P1;HPM_P2
2023/01/23 00:02:10;;;;;;;0.90;0.70;;;;;;;;;;5031007;28;20040;-68
2023/01/23 00:04:36;;;;;;;1.63;0.87;;;;;;;;;;5032403;28;20028;-67
2023/01/23 00:07:05;;;;;;;3.80;1.53;;;;;;;;;;5032185;28;20033;-67
2023/01/23 00:09:31;;;;;;;3.07;1.27;;;;;;;;;;5032368;28;20021;-68
2023/01/23 00:11:58;;;;;;;2.43;0.80;;;;;;;;;;5031710;28;20384;-68
2023/01/23 00:14:25;;;;;;;1.13;0.80;;;;;;;;;;5023552;28;20113;-69
2023/01/23 00:16:52;;;;;;;0.43;0.40;;;;;;;;;;5009391;28;20538;-68
2023/01/23 00:19:19;;;;;;;1.93;1.10;;;;;;;;;;5026645;28;20030;-67
2023/01/23 00:21:46;;;;;;;1.80;1.10;;;;;;;;;;5027096;28;20025;-68
2023/01/23 00:24:12;;;;;;;1.37;0.80;;;;;;;;;;5030110;28;20022;-69
2023/01/23 00:26:39;;;;;;;1.67;1.03;;;;;;;;;;5038632;28;20111;-68
2023/01/23 00:29:06;;;;;;;2.07;1.50;;;;;;;;;;5031933;28;20024;-68
2023/01/23 00:31:34;;;;;;;3.07;1.30;;;;;;;;;;5033083;28;20097;-68
2023/01/23 00:34:02;;;;;;;3.63;1.57;;;;;;;;;;5041360;28;20068;-68
2023/01/23 00:36:31;;;;;;;1.63;1.03;;;;;;;;;;5026174;28;20036;-69
2023/01/23 00:38:57;;;;;;;2.60;1.47;;;;;;;;;;5038917;28;20032;-68
2023/01/23 00:41:24;;;;;;;1.03;0.90;;;;;;;;;;5045184;28;20028;-68
2023/01/23 00:43:51;;;;;;;3.07;1.67;;;;;;;;;;5046830;28;20024;-68
2023/01/23 00:46:19;;;;;;;2.43;1.37;;;;;;;;;;5042567;28;20040;-68
2023/01/23 00:48:45;;;;;;;2.40;1.07;;;;;;;;;;5031958;28;20101;-68
2023/01/23 00:51:12;;;;;;;2.53;1.20;;;;;;;;;;5031491;28;20418;-69
2023/01/23 00:53:39;;;;;;;10.53;1.43;;;;;;;;;;5032149;28;20057;-68
2023/01/23 00:56:06;;;;;;;1.77;1.23;;;;;;;;;;5030840;28;20413;-68
2023/01/23 00:58:33;;;;;;;4.77;1.00;;;;;;;;;;5028322;28;20025;-68
2023/01/23 01:00:59;;;;;;;1.97;1.20;;;;;;;;;;5026416;28;20040;-68
2023/01/23 01:03:26;;;;;;;2.43;1.27;;;;;;;;;;5026250;28;20346;-69
2023/01/23 01:05:53;;;;;;;2.70;1.50;;;;;;;;;;5025634;28;20388;-67
2023/01/23 01:08:20;;;;;;;2.13;1.63;;;;;;;;;;5028152;28;20491;-68
2023/01/23 01:10:46;;;;;;;5.90;1.30;;;;;;;;;;5031883;28;20032;-67
2023/01/23 01:13:15;;;;;;;2.93;1.60;;;;;;;;;;5032994;28;20486;-68
2023/01/23 01:15:42;;;;;;;1.93;1.27;;;;;;;;;;5033446;28;20045;-67
2023/01/23 01:18:09;;;;;;;6.40;2.40;;;;;;;;;;5034919;28;20131;-67
2023/01/23 01:20:35;;;;;;;2.60;1.60;;;;;;;;;;5031841;28;20383;-68
2023/01/23 01:23:02;;;;;;;1.37;1.10;;;;;;;;;;5029052;28;20025;-66
2023/01/23 01:25:30;;;;;;;4.83;1.73;;;;;;;;;;5028810;28;20044;-66
2023/01/23 01:27:57;;;;;;;4.93;1.80;;;;;;;;;;5028625;28;20026;-67
2023/01/23 01:30:28;;;;;;;4.43;1.87;;;;;;;;;;5028621;28;20079;-67
2023/01/23 01:32:55;;;;;;;2.57;1.83;;;;;;;;;;5034899;28;20029;-68
2023/01/23 01:35:21;;;;;;;5.07;2.33;;;;;;;;;;5034402;28;20111;-66
2023/01/23 01:37:48;;;;;;;2.23;1.50;;;;;;;;;;5034196;28;20116;-67
2023/01/23 01:40:18;;;;;;;11.93;2.03;;;;;;;;;;5034262;28;20032;-66
2023/01/23 01:42:47;;;;;;;4.60;2.33;;;;;;;;;;5032219;28;20029;-67
2023/01/23 01:45:32;;;;;;;3.50;2.37;;;;;;;;;;5028232;28;20415;-67
2023/01/23 01:47:59;;;;;;;;;;;;;;;;;;5016959;28;20087;-67
2023/01/23 01:50:25;;;;;;;4.67;3.10;;;;;;;;;;5028856;28;19909;-66
2023/01/23 01:52:52;;;;;;;2.60;2.07;;;;;;;;;;5029986;28;20087;-66
2023/01/23 01:55:19;;;;;;;9.37;3.10;;;;;;;;;;5034638;28;20049;-66
2023/01/23 01:57:47;;;;;;;3.50;2.60;;;;;;;;;;5034506;28;20075;-66
2023/01/23 02:00:15;;;;;;;5.77;3.37;;;;;;;;;;5034527;28;20052;-67
2023/01/23 02:02:44;;;;;;;12.47;3.67;;;;;;;;;;5034268;28;20459;-66
2023/01/23 02:05:13;;;;;;;5.33;3.00;;;;;;;;;;5032924;28;20104;-66
2023/01/23 02:07:40;;;;;;;5.10;3.63;;;;;;;;;;5029066;28;20414;-66
2023/01/23 02:10:07;;;;;;;4.40;2.90;;;;;;;;;;5028981;28;20024;-66
2023/01/23 02:12:34;;;;;;;4.43;3.13;;;;;;;;;;5028362;28;20049;-66
2023/01/23 02:15:01;;;;;;;6.47;3.17;;;;;;;;;;5028675;28;20091;-66
2023/01/23 02:17:30;;;;;;;5.83;3.97;;;;;;;;;;5033870;28;20033;-66
2023/01/23 02:19:58;;;;;;;17.90;4.07;;;;;;;;;;5014993;28;20483;-66
2023/01/23 02:22:24;;;;;;;22.80;3.47;;;;;;;;;;5033389;28;20029;-66
2023/01/23 02:25:11;;;;;;;8.37;3.77;;;;;;;;;;5038411;28;20514;-67
2023/01/23 02:27:38;;;;;;;5.57;3.40;;;;;;;;;;5039881;28;20041;-67
2023/01/23 02:30:06;;;;;;;3.07;2.40;;;;;;;;;;5028567;28;20026;-67
2023/01/23 02:32:34;;;;;;;6.10;3.53;;;;;;;;;;5028838;28;20054;-66
2023/01/23 02:35:05;;;;;;;8.13;2.97;;;;;;;;;;5028574;28;20026;-67
2023/01/23 02:37:33;;;;;;;3.70;2.70;;;;;;;;;;5029474;28;20500;-66
2023/01/23 02:40:02;;;;;;;5.27;3.57;;;;;;;;;;5033210;28;20467;-66
2023/01/23 02:42:29;;;;;;;5.13;3.60;;;;;;;;;;5033799;28;20053;-67
2023/01/23 02:44:56;;;;;;;3.73;2.03;;;;;;;;;;5033877;28;20315;-66
2023/01/23 02:47:24;;;;;;;5.13;2.40;;;;;;;;;;5033650;28;20444;-66
2023/01/23 02:49:51;;;;;;;10.10;5.30;;;;;;;;;;5032065;28;20048;-66
2023/01/23 02:52:20;;;;;;;4.60;3.47;;;;;;;;;;5027805;28;20057;-67
2023/01/23 02:54:47;;;;;;;3.70;2.53;;;;;;;;;;5027993;28;20105;-66
2023/01/23 02:57:13;;;;;;;5.30;3.00;;;;;;;;;;5027123;28;20029;-67
2023/01/23 03:02:26;;;;;;;6.13;4.07;;;;;;;;;;5032902;28;20479;-66
2023/01/23 03:04:53;;;;;;;5.63;2.50;;;;;;;;;;5032842;28;20025;-66
2023/01/23 03:07:20;;;;;;;10.70;4.20;;;;;;;;;;5033077;28;20029;-66
2023/01/23 03:09:47;;;;;;;7.70;4.40;;;;;;;;;;5033175;28;20105;-66
2023/01/23 03:12:14;;;;;;;3.53;2.87;;;;;;;;;;5030782;28;20456;-66
2023/01/23 03:14:41;;;;;;;7.07;3.30;;;;;;;;;;5027510;28;20136;-67
2023/01/23 03:17:09;;;;;;;6.20;4.87;;;;;;;;;;5027374;28;20075;-64
2023/01/23 03:19:37;;;;;;;8.60;5.13;;;;;;;;;;5027132;28;20052;-67
2023/01/23 03:22:04;;;;;;;4.73;2.67;;;;;;;;;;5027693;28;20025;-67
2023/01/23 03:24:31;;;;;;;10.00;4.67;;;;;;;;;;5030012;28;20017;-66
2023/01/23 03:26:57;;;;;;;10.30;2.63;;;;;;;;;;5033751;28;20527;-66
2023/01/23 03:32:11;;;;;;;11.47;5.37;;;;;;;;;;5013539;28;20459;-66
2023/01/23 03:34:38;;;;;;;8.03;4.80;;;;;;;;;;5011543;28;20038;-68
2023/01/23 03:37:06;;;;;;;9.97;5.17;;;;;;;;;;5007100;28;20018;-67
2023/01/23 03:42:19;;;;;;;10.60;6.53;;;;;;;;;;5027396;28;20064;-66
2023/01/23 03:44:46;;;;;;;10.10;5.83;;;;;;;;;;5029034;28;20026;-65
2023/01/23 03:47:12;;;;;;;8.97;4.83;;;;;;;;;;5032272;28;20057;-66
2023/01/23 03:49:39;;;;;;;7.90;5.80;;;;;;;;;;5031496;28;20515;-64
2023/01/23 03:52:06;;;;;;;8.23;5.07;;;;;;;;;;5030110;28;20096;-65
2023/01/23 03:54:33;;;;;;;7.60;4.30;;;;;;;;;;5031900;28;20029;-65
2023/01/23 03:56:59;;;;;;;11.20;6.40;;;;;;;;;;5029666;28;20546;-67
2023/01/23 03:59:26;;;;;;;7.93;4.67;;;;;;;;;;5027238;28;20029;-65
2023/01/23 04:01:53;;;;;;;10.03;5.90;;;;;;;;;;5026454;28;20018;-65
2023/01/23 04:04:19;;;;;;;25.27;5.10;;;;;;;;;;5027110;28;20156;-66
2023/01/23 04:06:46;;;;;;;12.20;6.07;;;;;;;;;;5027228;28;20037;-65
2023/01/23 04:09:13;;;;;;;10.60;5.53;;;;;;;;;;5032188;28;20104;-65
2023/01/23 04:11:39;;;;;;;13.47;5.47;;;;;;;;;;5031551;28;20468;-64
2023/01/23 04:14:06;;;;;;;13.50;4.43;;;;;;;;;;5031978;28;20029;-66
2023/01/23 04:16:33;;;;;;;5.17;3.73;;;;;;;;;;5031764;28;20029;-67
2023/01/23 04:19:00;;;;;;;5.83;3.97;;;;;;;;;;5030682;28;20025;-66
2023/01/23 04:21:26;;;;;;;3.57;2.53;;;;;;;;;;5025694;28;20034;-66
2023/01/23 04:23:53;;;;;;;4.90;3.10;;;;;;;;;;5026577;28;20057;-66
2023/01/23 04:26:20;;;;;;;5.30;4.00;;;;;;;;;;5027004;28;20029;-66
2023/01/23 04:28:46;;;;;;;6.67;4.77;;;;;;;;;;5022907;28;20531;-66
2023/01/23 04:31:13;;;;;;;4.67;3.70;;;;;;;;;;5031636;28;20028;-66
2023/01/23 04:33:40;;;;;;;5.53;3.77;;;;;;;;;;5032134;28;20021;-66
2023/01/23 04:36:07;;;;;;;8.63;4.80;;;;;;;;;;5031384;28;20036;-67
2023/01/23 04:38:34;;;;;;;8.97;6.10;;;;;;;;;;5031885;28;20030;-66
2023/01/23 04:41:00;;;;;;;10.63;5.33;;;;;;;;;;5031309;28;20022;-66
2023/01/23 04:43:27;;;;;;;9.33;5.93;;;;;;;;;;5026188;28;20072;-67
2023/01/23 04:45:55;;;;;;;7.67;5.80;;;;;;;;;;5025675;28;20109;-66
2023/01/23 04:48:21;;;;;;;6.80;4.97;;;;;;;;;;5028950;28;20025;-65
2023/01/23 04:50:49;;;;;;;8.27;5.27;;;;;;;;;;5030217;28;20422;-65
2023/01/23 04:53:15;;;;;;;11.07;4.40;;;;;;;;;;5034372;28;20487;-65
2023/01/23 04:55:42;;;;;;;8.93;5.03;;;;;;;;;;5035583;28;20083;-65
2023/01/23 04:58:10;;;;;;;7.83;4.90;;;;;;;;;;5036023;28;20415;-65
2023/01/23 05:00:37;;;;;;;10.70;6.33;;;;;;;;;;5035423;28;20022;-65
2023/01/23 05:03:04;;;;;;;7.33;5.03;;;;;;;;;;5033706;28;20040;-65
2023/01/23 05:05:32;;;;;;;6.83;4.80;;;;;;;;;;5029645;28;20494;-66
2023/01/23 05:07:59;;;;;;;6.20;4.70;;;;;;;;;;5032305;28;20384;-66
2023/01/23 05:10:26;;;;;;;11.93;3.10;;;;;;;;;;5029353;28;20021;-66
2023/01/23 05:12:52;;;;;;;6.77;4.17;;;;;;;;;;5030178;28;20018;-65
2023/01/23 05:15:20;;;;;;;9.87;4.67;;;;;;;;;;5034179;28;20026;-66
2023/01/23 05:17:47;;;;;;;11.73;5.53;;;;;;;;;;5034934;28;20018;-66
2023/01/23 05:20:14;;;;;;;9.03;4.40;;;;;;;;;;5034061;28;20034;-65
2023/01/23 05:22:53;;;;;;;7.37;4.53;;;;;;;;;;5034737;28;20034;-65
2023/01/23 05:25:21;;;;;;;6.23;4.30;;;;;;;;;;5034886;28;20037;-65
2023/01/23 05:27:48;;;;;;;9.00;5.57;;;;;;;;;;5030155;28;20060;-66
2023/01/23 05:30:15;;;;;;;4.17;3.43;;;;;;;;;;5029434;28;20021;-66
2023/01/23 05:32:42;;;;;;;9.00;6.33;;;;;;;;;;5029188;28;20051;-66
2023/01/23 05:35:10;;;;;;;8.17;4.43;;;;;;;;;;5029223;28;20024;-66
2023/01/23 05:37:37;;;;;;;7.07;4.00;;;;;;;;;;5033435;28;20072;-66
2023/01/23 05:40:08;;;;;;;5.47;3.23;;;;;;;;;;5033382;28;20083;-65
2023/01/23 05:42:35;;;;;;;5.30;2.80;;;;;;;;;;5035011;28;20100;-66
2023/01/23 05:45:02;;;;;;;14.07;4.30;;;;;;;;;;5034526;28;20111;-66
2023/01/23 05:47:29;;;;;;;10.87;4.33;;;;;;;;;;5034693;28;20056;-66
2023/01/23 05:49:56;;;;;;;8.30;5.23;;;;;;;;;;5030385;28;20025;-65
2023/01/23 05:52:22;;;;;;;4.77;3.07;;;;;;;;;;5029284;28;20033;-66
2023/01/23 05:54:55;;;;;;;7.87;4.73;;;;;;;;;;5029153;28;20061;-65
2023/01/23 05:57:22;;;;;;;5.73;4.07;;;;;;;;;;5028911;28;20033;-66
2023/01/23 05:59:49;;;;;;;4.33;3.17;;;;;;;;;;5032905;28;20026;-65
2023/01/23 06:02:16;;;;;;;11.97;4.07;;;;;;;;;;5034785;28;20350;-65
2023/01/23 06:04:47;;;;;;;8.87;4.30;;;;;;;;;;5034209;28;20026;-66
2023/01/23 06:07:15;;;;;;;6.80;4.77;;;;;;;;;;5034550;28;20026;-66
2023/01/23 06:09:42;;;;;;;7.17;3.73;;;;;;;;;;5034148;28;20028;-65
2023/01/23 06:12:10;;;;;;;5.53;3.47;;;;;;;;;;5029795;28;20029;-65
2023/01/23 06:14:37;;;;;;;6.03;4.07;;;;;;;;;;5028932;28;20542;-66
2023/01/23 06:17:03;;;;;;;5.13;3.67;;;;;;;;;;5028751;28;20018;-65
2023/01/23 06:19:30;;;;;;;7.17;4.43;;;;;;;;;;5028422;28;20049;-66
2023/01/23 06:21:57;;;;;;;4.60;2.93;;;;;;;;;;5032008;28;20013;-65
2023/01/23 06:24:24;;;;;;;6.27;4.13;;;;;;;;;;5035667;28;20028;-65
2023/01/23 06:26:50;;;;;;;2.80;2.07;;;;;;;;;;5054176;28;20043;-66
2023/01/23 06:29:17;;;;;;;7.07;4.77;;;;;;;;;;5053889;28;20418;-66
2023/01/23 06:31:45;;;;;;;4.27;3.57;;;;;;;;;;5053999;28;20017;-65
2023/01/23 06:34:12;;;;;;;10.27;4.37;;;;;;;;;;5042921;28;20021;-66
2023/01/23 06:36:40;;;;;;;5.90;3.63;;;;;;;;;;5027852;28;20057;-65
2023/01/23 06:39:07;;;;;;;5.10;2.70;;;;;;;;;;5028143;28;20052;-67
2023/01/23 06:41:34;;;;;;;5.27;3.17;;;;;;;;;;5028278;28;20021;-66
2023/01/23 06:44:01;;;;;;;4.33;2.73;;;;;;;;;;5031276;28;20083;-66
2023/01/23 06:46:27;;;;;;;3.37;2.53;;;;;;;;;;5033096;28;20453;-66
2023/01/23 06:48:57;;;;;;;6.17;3.50;;;;;;;;;;5033479;28;20029;-65
2023/01/23 06:51:27;;;;;;;5.77;4.53;;;;;;;;;;5033370;28;20056;-65
2023/01/23 06:53:58;;;;;;;5.83;3.97;;;;;;;;;;5033697;28;20021;-66
2023/01/23 06:56:27;;;;;;;4.23;3.53;;;;;;;;;;5029947;28;20033;-65
2023/01/23 06:58:54;;;;;;;7.37;4.50;;;;;;;;;;5028075;28;20033;-65
2023/01/23 07:01:21;;;;;;;6.60;2.87;;;;;;;;;;5028049;28;20020;-65
2023/01/23 07:03:48;;;;;;;4.63;3.13;;;;;;;;;;5027907;28;20017;-66
2023/01/23 07:06:15;;;;;;;9.47;3.97;;;;;;;;;;5030582;28;20029;-65
2023/01/23 07:08:42;;;;;;;4.97;3.27;;;;;;;;;;5033208;28;20025;-65
2023/01/23 07:11:12;;;;;;;5.73;3.43;;;;;;;;;;5032496;28;20108;-65
2023/01/23 07:13:39;;;;;;;4.60;3.50;;;;;;;;;;5033249;28;20017;-65
2023/01/23 07:16:06;;;;;;;4.93;3.43;;;;;;;;;;5033102;28;20022;-67
2023/01/23 07:18:33;;;;;;;7.60;4.73;;;;;;;;;;5030399;28;20049;-66
2023/01/23 07:21:03;;;;;;;3.53;2.50;;;;;;;;;;5027448;28;20030;-65
2023/01/23 07:23:30;;;;;;;3.90;3.07;;;;;;;;;;5026622;28;20480;-66
2023/01/23 07:26:02;;;;;;;5.27;3.53;;;;;;;;;;5025993;28;20053;-64
2023/01/23 07:28:29;;;;;;;8.70;4.97;;;;;;;;;;5027932;28;20045;-64
2023/01/23 07:30:57;;;;;;;8.70;4.50;;;;;;;;;;5032782;28;20112;-65
2023/01/23 07:33:24;;;;;;;4.93;3.63;;;;;;;;;;5032321;28;20100;-65
2023/01/23 07:35:51;;;;;;;7.20;4.20;;;;;;;;;;5032667;28;20037;-65
2023/01/23 07:38:17;;;;;;;5.57;3.40;;;;;;;;;;5032826;28;20022;-64
2023/01/23 07:40:44;;;;;;;6.27;4.07;;;;;;;;;;5032370;28;20022;-64
2023/01/23 07:43:12;;;;;;;5.90;3.37;;;;;;;;;;5028060;28;20064;-64
2023/01/23 07:45:38;;;;;;;4.90;3.00;;;;;;;;;;5027859;28;20036;-64
2023/01/23 07:48:05;;;;;;;6.57;4.20;;;;;;;;;;5027493;28;20534;-64
2023/01/23 07:50:32;;;;;;;8.77;4.47;;;;;;;;;;5027690;28;20029;-64
2023/01/23 07:52:59;;;;;;;3.60;2.40;;;;;;;;;;5027811;28;20350;-65
2023/01/23 07:55:26;;;;;;;4.27;3.17;;;;;;;;;;5032399;28;20126;-64
2023/01/23 07:57:52;;;;;;;4.53;3.50;;;;;;;;;;5032335;28;20029;-64
2023/01/23 08:00:19;;;;;;;4.03;3.30;;;;;;;;;;5031996;28;20091;-64
2023/01/23 08:02:46;;;;;;;4.13;2.70;;;;;;;;;;5032173;28;20021;-64
2023/01/23 08:05:13;;;;;;;7.67;3.40;;;;;;;;;;5032394;28;20033;-64
2023/01/23 08:07:39;;;;;;;3.00;2.50;;;;;;;;;;5028549;28;20036;-64
2023/01/23 08:10:07;;;;;;;3.00;2.40;;;;;;;;;;5027239;28;20033;-64
2023/01/23 08:12:33;;;;;;;16.37;4.07;;;;;;;;;;5027116;28;20026;-64
2023/01/23 08:15:00;;;;;;;6.17;3.67;;;;;;;;;;5027433;28;20033;-64
2023/01/23 08:17:27;;;;;;;3.23;2.63;;;;;;;;;;5027567;28;20354;-64
2023/01/23 08:19:54;;;;;;;10.73;5.50;;;;;;;;;;5031469;28;20472;-64
2023/01/23 08:22:20;;;;;;;9.50;3.50;;;;;;;;;;5030899;28;20205;-64
2023/01/23 08:24:47;;;;;;;3.17;2.40;;;;;;;;;;5032382;28;20099;-64
2023/01/23 08:27:14;;;;;;;5.17;3.67;;;;;;;;;;5032020;28;20439;-64
2023/01/23 08:29:41;;;;;;;9.60;2.73;;;;;;;;;;5031924;28;20056;-64
2023/01/23 08:32:07;;;;;;;4.80;2.90;;;;;;;;;;5028176;28;20029;-65
2023/01/23 08:34:34;;;;;;;5.40;3.87;;;;;;;;;;5027297;28;20535;-64
2023/01/23 08:37:01;;;;;;;7.57;4.03;;;;;;;;;;5027139;28;20088;-64
2023/01/23 08:39:27;;;;;;;4.87;3.70;;;;;;;;;;5027126;28;20060;-64
2023/01/23 08:41:54;;;;;;;6.40;3.87;;;;;;;;;;5026836;28;20495;-64
2023/01/23 08:44:21;;;;;;;4.10;2.60;;;;;;;;;;5030607;28;20018;-64
2023/01/23 08:46:48;;;;;;;7.77;4.33;;;;;;;;;;5031715;28;20037;-64
2023/01/23 08:49:14;;;;;;;8.27;4.13;;;;;;;;;;5031286;28;20021;-65
2023/01/23 08:51:41;;;;;;;4.13;3.03;;;;;;;;;;5031342;28;20036;-65
2023/01/23 08:54:08;;;;;;;4.87;3.67;;;;;;;;;;5031932;28;20097;-64
2023/01/23 08:56:34;;;;;;;4.70;2.93;;;;;;;;;;5029401;28;20053;-64
2023/01/23 08:59:01;;;;;;;11.10;4.40;;;;;;;;;;5027111;28;20026;-65
2023/01/23 09:01:28;;;;;;;4.37;3.50;;;;;;;;;;5027172;28;20030;-64
2023/01/23 09:03:55;;;;;;;4.57;3.17;;;;;;;;;;5026703;28;20117;-64
2023/01/23 09:06:22;;;;;;;5.07;3.40;;;;;;;;;;5026494;28;20164;-64
2023/01/23 09:08:49;;;;;;;5.70;3.47;;;;;;;;;;5029755;28;20030;-64
2023/01/23 09:11:16;;;;;;;8.80;4.23;;;;;;;;;;5031740;28;20083;-64
2023/01/23 09:13:43;;;;;;;6.60;4.43;;;;;;;;;;5031570;28;20022;-64
2023/01/23 09:16:10;;;;;;;2.67;2.30;;;;;;;;;;5032031;28;20029;-64
2023/01/23 09:18:36;;;;;;;4.73;3.33;;;;;;;;;;5031712;28;20478;-64
2023/01/23 09:21:07;;;;;;;3.20;2.50;;;;;;;;;;5029226;28;20028;-64
2023/01/23 09:23:34;;;;;;;5.17;3.10;;;;;;;;;;5026506;28;20403;-64
2023/01/23 09:26:08;;;;;;;3.37;2.50;;;;;;;;;;5026846;28;20029;-64
2023/01/23 09:28:35;;;;;;;6.33;4.20;;;;;;;;;;5026759;28;20377;-65
2023/01/23 09:31:02;;;;;;;6.17;3.63;;;;;;;;;;5026814;28;20029;-64
2023/01/23 09:33:29;;;;;;;4.60;3.47;;;;;;;;;;5030041;28;20388;-64
2023/01/23 09:35:56;;;;;;;4.67;2.80;;;;;;;;;;5034635;28;20117;-64
2023/01/23 09:38:23;;;;;;;5.30;4.27;;;;;;;;;;5034841;28;20061;-64
2023/01/23 09:40:51;;;;;;;5.83;3.97;;;;;;;;;;5035061;28;20029;-64
2023/01/23 09:43:23;;;;;;;6.70;4.00;;;;;;;;;;5034990;28;20032;-64
2023/01/23 09:45:58;;;;;;;6.00;2.10;;;;;;;;;;5032484;28;20030;-64
2023/01/23 09:48:25;;;;;;;;;;;;;;;;;;5029752;28;20044;-64
2023/01/23 09:51:04;;;;;;;4.13;3.20;;;;;;;;;;5030194;28;20002;-64
2023/01/23 09:53:37;;;;;;;3.47;2.83;;;;;;;;;;5030085;28;20025;-64
2023/01/23 09:56:14;;;;;;;4.10;3.00;;;;;;;;;;5029886;28;20025;-64
2023/01/23 09:58:43;;;;;;;3.67;2.53;;;;;;;;;;5033240;28;20472;-64
2023/01/23 10:01:12;;;;;;;3.43;2.87;;;;;;;;;;5034521;28;20025;-64
2023/01/23 10:03:39;;;;;;;6.57;4.10;;;;;;;;;;5034652;28;20075;-64
2023/01/23 10:06:18;;;;;;;5.33;2.80;;;;;;;;;;5034512;28;20025;-64
2023/01/23 10:09:13;;;;;;;3.40;2.77;;;;;;;;;;5034188;28;20049;-64
2023/01/23 10:11:41;;;;;;;8.10;3.57;;;;;;;;;;5030034;28;20028;-64
2023/01/23 10:14:25;;;;;;;4.27;2.70;;;;;;;;;;5029693;28;20456;-64
2023/01/23 10:17:01;;;;;;;5.97;3.07;;;;;;;;;;5029599;28;20053;-64
2023/01/23 10:19:37;;;;;;;3.30;2.17;;;;;;;;;;5029616;28;20022;-64
2023/01/23 10:22:22;;;;;;;12.47;2.77;;;;;;;;;;5029988;28;20025;-64
2023/01/23 10:24:48;;;;;;;7.80;4.18;;;;;;;;;;5034295;28;20553;-64
2023/01/23 10:27:15;;;;;;;5.40;3.27;;;;;;;;;;5033762;28;20480;-64
2023/01/23 10:29:45;;;;;;;5.07;3.13;;;;;;;;;;5033932;28;20489;-64
2023/01/23 10:32:23;;;;;;;5.60;3.03;;;;;;;;;;5034035;28;20028;-63
2023/01/23 10:35:02;;;;;;;3.53;2.93;;;;;;;;;;5032600;28;20025;-63
2023/01/23 10:37:40;;;;;;;6.50;3.17;;;;;;;;;;5029112;28;20441;-64
2023/01/23 10:40:10;;;;;;;4.07;2.77;;;;;;;;;;5029035;28;20388;-64
2023/01/23 10:42:37;;;;;;;6.33;3.93;;;;;;;;;;5029084;28;20060;-64
2023/01/23 10:45:05;;;;;;;13.73;3.23;;;;;;;;;;5028107;28;20025;-64
2023/01/23 10:47:36;;;;;;;10.80;4.33;;;;;;;;;;5030792;28;20400;-64
2023/01/23 10:50:04;;;;;;;5.20;2.60;;;;;;;;;;5033523;28;20516;-64
2023/01/23 10:52:35;;;;;;;9.87;3.80;;;;;;;;;;5033721;28;20025;-64
2023/01/23 10:55:03;;;;;;;12.00;4.33;;;;;;;;;;5033566;28;20025;-63
2023/01/23 10:57:33;;;;;;;14.13;4.03;;;;;;;;;;5033323;28;20446;-64
2023/01/23 11:00:07;;;;;;;3.70;2.73;;;;;;;;;;5031418;28;20029;-64
2023/01/23 11:02:34;;;;;;;3.88;3.05;;;;;;;;;;5028417;28;20059;-64
2023/01/23 11:05:02;;;;;;;4.47;2.80;;;;;;;;;;5028593;28;20021;-64
2023/01/23 11:07:30;;;;;;;5.10;3.80;;;;;;;;;;5028681;28;20034;-64
2023/01/23 11:10:03;;;;;;;6.63;3.00;;;;;;;;;;5027840;28;20026;-64
2023/01/23 11:12:31;;;;;;;5.53;3.13;;;;;;;;;;5031328;28;20029;-63
2023/01/23 11:15:16;;;;;;;5.23;3.10;;;;;;;;;;5033327;28;20022;-64
2023/01/23 11:17:43;;;;;;;5.53;2.88;;;;;;;;;;5033351;28;20013;-64
2023/01/23 11:20:11;;;;;;;5.60;2.90;;;;;;;;;;5032986;28;20439;-64
2023/01/23 11:22:41;;;;;;;5.10;3.43;;;;;;;;;;5033097;28;20109;-64
2023/01/23 11:25:37;;;;;;;3.53;2.77;;;;;;;;;;5029925;28;20067;-64
2023/01/23 11:28:03;;;;;;;;;;;;;;;;;;5019758;28;20042;-64
2023/01/23 11:30:34;;;;;;;8.67;3.23;;;;;;;;;;5028138;28;19905;-64
2023/01/23 11:33:20;;;;;;;6.07;4.13;;;;;;;;;;5028140;28;20025;-64
2023/01/23 11:35:50;;;;;;;5.23;3.90;;;;;;;;;;5006752;28;20396;-64
2023/01/23 11:38:18;;;;;;;4.50;2.77;;;;;;;;;;5033066;28;20381;-64
2023/01/23 11:40:46;;;;;;;4.90;2.83;;;;;;;;;;5032629;28;20060;-64
2023/01/23 11:43:16;;;;;;;3.63;2.67;;;;;;;;;;5032837;28;20025;-64
2023/01/23 11:45:54;;;;;;;7.67;3.57;;;;;;;;;;5032560;28;20109;-64
2023/01/23 11:48:24;;;;;;;4.03;3.33;;;;;;;;;;5032870;28;20387;-64
2023/01/23 11:50:55;;;;;;;5.07;3.20;;;;;;;;;;5027583;28;20371;-64
2023/01/23 11:53:21;;;;;;;2.40;1.80;;;;;;;;;;5027925;28;20039;-63
2023/01/23 11:56:05;;;;;;;4.20;3.20;;;;;;;;;;5027477;28;20026;-64
2023/01/23 11:58:40;;;;;;;3.10;2.27;;;;;;;;;;5027899;28;20060;-64
2023/01/23 12:01:13;;;;;;;5.50;4.03;;;;;;;;;;5028809;28;20024;-64
2023/01/23 12:04:01;;;;;;;4.87;3.53;;;;;;;;;;5032119;28;20026;-64
2023/01/23 12:06:49;;;;;;;4.80;3.27;;;;;;;;;;5032307;28;20026;-64
2023/01/23 12:09:19;;;;;;;5.57;3.23;;;;;;;;;;5032451;28;20025;-63
2023/01/23 12:11:50;;;;;;;2.97;2.17;;;;;;;;;;5032215;28;20026;-64
2023/01/23 12:14:20;;;;;;;4.67;3.67;;;;;;;;;;5029254;28;20032;-64
2023/01/23 12:16:53;;;;;;;3.20;2.53;;;;;;;;;;5027537;28;20021;-64
2023/01/23 12:19:19;;;;;;;3.17;2.43;;;;;;;;;;5027436;28;20022;-63
2023/01/23 12:22:15;;;;;;;9.20;1.93;;;;;;;;;;5027504;28;20026;-63
2023/01/23 12:24:41;;;;;;;;;;;;;;;;;;5015009;28;20040;-64
2023/01/23 12:27:33;;;;;;;5.63;3.23;;;;;;;;;;5031060;28;20330;-63
2023/01/23 12:30:02;;;;;;;16.30;3.27;;;;;;;;;;5026887;28;20075;-63
2023/01/23 12:32:41;;;;;;;10.37;4.77;;;;;;;;;;5031881;28;20022;-65
2023/01/23 12:35:14;;;;;;;7.57;4.97;;;;;;;;;;5032127;28;20018;-63
2023/01/23 12:37:52;;;;;;;7.13;4.13;;;;;;;;;;5031870;28;20044;-63
2023/01/23 12:40:31;;;;;;;4.27;3.10;;;;;;;;;;5027273;28;20037;-63
2023/01/23 12:43:18;;;;;;;5.87;3.87;;;;;;;;;;5027337;28;20026;-64
2023/01/23 12:45:53;;;;;;;25.40;10.67;;;;;;;;;;5026827;28;20800;-63
2023/01/23 12:48:26;;;;;;;29.05;10.52;;;;;;;;;;5027181;28;20033;-64
2023/01/23 12:51:00;;;;;;;22.00;13.70;;;;;;;;;;5029203;28;20545;-63
2023/01/23 12:53:29;;;;;;;15.60;9.47;;;;;;;;;;5031781;28;20749;-64
2023/01/23 12:56:16;;;;;;;16.57;11.17;;;;;;;;;;5031772;28;20261;-65
2023/01/23 12:58:48;;;;;;;21.37;9.03;;;;;;;;;;5031331;28;20725;-63
2023/01/23 13:01:32;;;;;;;8.90;6.33;;;;;;;;;;5031602;28;20278;-64
2023/01/23 13:04:04;;;;;;;12.80;5.93;;;;;;;;;;5028539;28;20658;-64
2023/01/23 13:06:43;;;;;;;18.63;5.77;;;;;;;;;;5026966;28;20344;-63
2023/01/23 13:09:28;;;;;;;5.93;3.93;;;;;;;;;;5028825;28;20648;-63
2023/01/23 13:12:17;;;;;;;6.68;4.20;;;;;;;;;;5030943;28;20753;-64
2023/01/23 13:14:44;;;;;;;9.50;6.57;;;;;;;;;;5030707;28;20032;-63
2023/01/23 13:17:29;;;;;;;11.13;6.07;;;;;;;;;;5035602;28;20297;-64
2023/01/23 13:23:19;;;;;;;13.27;6.10;;;;;;;;;;5035588;28;20094;-63
2023/01/23 13:25:45;;;;;;;10.13;6.23;;;;;;;;;;5034711;28;20775;-64
2023/01/23 13:28:46;;;;;;;7.80;5.67;;;;;;;;;;5032982;28;20737;-63
2023/01/23 13:31:32;;;;;;;4.27;3.23;;;;;;;;;;5000702;28;20310;-63
2023/01/23 13:33:59;;;;;;;9.90;6.00;;;;;;;;;;5039632;28;20263;-63
2023/01/23 13:36:33;;;;;;;10.63;4.70;;;;;;;;;;5042686;28;20353;-63
2023/01/23 13:39:03;;;;;;;4.80;3.03;;;;;;;;;;5035130;28;20768;-63
2023/01/23 13:41:33;;;;;;;5.93;3.80;;;;;;;;;;5026225;28;20254;-63
2023/01/23 13:44:04;;;;;;;10.10;5.20;;;;;;;;;;5045218;28;20582;-63
2023/01/23 13:46:33;;;;;;;4.13;3.30;;;;;;;;;;5042702;28;20289;-63
2023/01/23 13:56:37;;;;;;;60.67;7.43;;;;;;;;;;5009469;28;20366;-63
2023/01/23 13:57:39;;;;;;;6.10;4.28;;;;;;;;;;5029258;28;20828;-64
2023/01/23 14:00:11;;;;;;;8.40;3.90;;;;;;;;;;5030924;28;20468;-65
2023/01/23 14:05:33;;;;;;;10.63;4.37;;;;;;;;;;5034124;28;20091;-64
2023/01/23 14:08:01;;;;;;;10.82;4.07;;;;;;;;;;5034552;28;20065;-64
2023/01/23 14:10:29;;;;;;;8.40;4.10;;;;;;;;;;5033864;28;20100;-64
2023/01/23 14:13:03;;;;;;;29.77;4.67;;;;;;;;;;5030551;28;20035;-64
2023/01/23 14:18:35;;;;;;;6.10;3.40;;;;;;;;;;5029259;28;20053;-64
2023/01/23 14:21:25;;;;;;;6.40;3.40;;;;;;;;;;5008943;28;20030;-64
2023/01/23 14:23:54;;;;;;;4.30;3.17;;;;;;;;;;5025684;28;20034;-64
2023/01/23 14:26:24;;;;;;;10.50;4.10;;;;;;;;;;5033807;28;20112;-64
2023/01/23 14:28:52;;;;;;;5.83;4.20;;;;;;;;;;5032358;28;20453;-64
2023/01/23 14:31:26;;;;;;;8.07;3.57;;;;;;;;;;5033226;28;20101;-64
2023/01/23 14:33:56;;;;;;;6.63;4.40;;;;;;;;;;5033080;28;20063;-65
2023/01/23 14:36:22;;;;;;;9.33;4.83;;;;;;;;;;5028567;28;20033;-65
2023/01/23 14:38:50;;;;;;;8.70;4.73;;;;;;;;;;5027636;28;20072;-63
2023/01/23 14:41:17;;;;;;;4.47;3.60;;;;;;;;;;5028575;28;20025;-65
2023/01/23 14:43:44;;;;;;;6.33;3.40;;;;;;;;;;5028194;28;20039;-65
2023/01/23 14:46:18;;;;;;;3.93;3.20;;;;;;;;;;5029394;28;20492;-65
2023/01/23 14:48:49;;;;;;;5.72;3.70;;;;;;;;;;5033526;28;20026;-64
2023/01/23 14:51:26;;;;;;;6.27;3.10;;;;;;;;;;5033251;28;20028;-65
2023/01/23 14:53:57;;;;;;;12.50;4.83;;;;;;;;;;5013844;28;20562;-64
2023/01/23 14:56:26;;;;;;;10.77;5.53;;;;;;;;;;5013811;28;20380;-65
2023/01/23 14:58:54;;;;;;;11.20;4.30;;;;;;;;;;5012573;28;20114;-66
2023/01/23 15:01:21;;;;;;;8.67;4.17;;;;;;;;;;5008540;28;20030;-63
2023/01/23 15:04:00;;;;;;;13.20;5.53;;;;;;;;;;5027482;28;20380;-65
2023/01/23 15:06:28;;;;;;;5.13;3.73;;;;;;;;;;5028333;28;20412;-65
2023/01/23 15:08:55;;;;;;;7.40;5.10;;;;;;;;;;5028410;28;20056;-65
2023/01/23 15:11:27;;;;;;;12.13;5.03;;;;;;;;;;5030346;28;20060;-65
2023/01/23 15:14:00;;;;;;;7.40;3.60;;;;;;;;;;5033160;28;20030;-66
2023/01/23 15:16:30;;;;;;;6.90;5.27;;;;;;;;;;5032960;28;20564;-65
2023/01/23 15:19:01;;;;;;;9.87;4.10;;;;;;;;;;5032825;28;20021;-65